createdAt,value
2022-10-31T00:01:25.808Z,6.88
2022-10-31T00:03:53.153Z,5.50
2022-10-31T00:06:20.099Z,8.15
2022-10-31T00:08:58.874Z,6.10
2022-10-31T00:11:26.758Z,5.95
2022-10-31T00:13:54.334Z,5.43
2022-10-31T00:16:25.678Z,8.73
2022-10-31T00:18:56.027Z,8.25
2022-10-31T00:21:23.917Z,6.18
2022-10-31T00:23:50.812Z,5.53
2022-10-31T00:26:18.689Z,7.70
2022-10-31T00:28:45.545Z,6.72
2022-10-31T00:31:13.862Z,5.82
2022-10-31T00:33:42.124Z,7.93
2022-10-31T00:36:13.380Z,8.10
2022-10-31T00:38:42.355Z,9.02
2022-10-31T00:41:09.771Z,6.95
2022-10-31T00:43:36.736Z,9.57
2022-10-31T00:46:03.778Z,8.10
2022-10-31T00:48:31.272Z,9.27
2022-10-31T00:50:58.461Z,8.18
2022-10-31T00:53:25.372Z,8.40
2022-10-31T00:55:52.714Z,9.27
2022-10-31T00:58:19.729Z,7.93
2022-10-31T01:00:56.113Z,8.82
2022-10-31T01:03:32.539Z,7.82
2022-10-31T01:06:07.530Z,7.05
2022-10-31T01:08:36.296Z,7.90
2022-10-31T01:11:22.318Z,7.10
2022-10-31T01:13:52.611Z,10.38
2022-10-31T01:16:21.981Z,6.55
2022-10-31T01:21:22.846Z,6.03
2022-10-31T01:23:50.657Z,8.48
2022-10-31T01:26:23.667Z,8.77
2022-10-31T01:28:59.166Z,5.72
2022-10-31T01:31:38.164Z,8.15
2022-10-31T01:34:05.830Z,9.18
2022-10-31T01:36:38.145Z,8.23
2022-10-31T01:39:08.793Z,11.43
2022-10-31T01:41:39.041Z,11.18
2022-10-31T01:44:14.973Z,11.55
2022-10-31T01:46:47.304Z,6.45
2022-10-31T01:49:50.328Z,7.78
2022-10-31T01:52:32.205Z,8.20
2022-10-31T01:55:04.450Z,7.43
2022-10-31T01:57:33.070Z,7.80
2022-10-31T02:00:05.649Z,6.65
2022-10-31T02:02:40.569Z,9.57
2022-10-31T02:05:11.717Z,5.97
2022-10-31T02:07:52.971Z,12.93
2022-10-31T02:10:23.226Z,5.60
2022-10-31T02:12:54.163Z,8.23
2022-10-31T02:15:21.220Z,8.35
2022-10-31T02:17:48.788Z,8.35
2022-10-31T02:20:20.480Z,8.15
2022-10-31T02:22:54.724Z,7.63
2022-10-31T02:25:40.567Z,6.82
2022-10-31T02:28:29.704Z,10.50
2022-10-31T02:31:26.349Z,10.95
2022-10-31T02:34:13.399Z,8.48
2022-10-31T02:36:49.954Z,5.97
2022-10-31T02:39:26.627Z,6.82
2022-10-31T02:42:02.636Z,5.93
2022-10-31T02:44:45.730Z,4.03
2022-10-31T02:47:19.949Z,6.32
2022-10-31T02:50:05.145Z,10.43
2022-10-31T02:52:34.141Z,8.35
2022-10-31T02:55:27.497Z,13.00
2022-10-31T02:58:15.646Z,6.68
2022-10-31T03:00:51.240Z,9.68
2022-10-31T03:03:29.590Z,6.32
2022-10-31T03:06:04.745Z,8.30
2022-10-31T03:08:42.499Z,9.80
2022-10-31T03:11:10.737Z,8.75
2022-10-31T03:13:44.269Z,8.02
2022-10-31T03:16:19.578Z,8.68
2022-10-31T03:18:51.559Z,6.47
2022-10-31T03:21:25.043Z,8.27
2022-10-31T03:23:54.957Z,8.75
2022-10-31T03:26:24.788Z,8.48
2022-10-31T03:29:05.962Z,9.70
2022-10-31T03:31:40.021Z,6.53
2022-10-31T03:34:08.887Z,8.38
2022-10-31T03:36:40.009Z,9.70
2022-10-31T03:39:10.850Z,10.82
2022-10-31T03:41:43.821Z,9.00
2022-10-31T03:44:18.872Z,8.10
2022-10-31T03:46:50.290Z,8.32
2022-10-31T03:49:17.862Z,7.93
2022-10-31T03:51:56.620Z,9.15
2022-10-31T03:55:02.354Z,9.18
2022-10-31T03:57:39.424Z,7.47
2022-10-31T04:00:12.369Z,6.40
2022-10-31T04:02:54.896Z,7.05
2022-10-31T04:07:54.705Z,6.28
2022-10-31T04:10:30.129Z,8.48
2022-10-31T04:13:08.868Z,7.30
2022-10-31T04:15:45.894Z,6.90
2022-10-31T04:18:13.080Z,6.32
2022-10-31T04:20:42.292Z,5.72
2022-10-31T04:23:23.722Z,5.05
2022-10-31T04:25:51.548Z,6.30
2022-10-31T04:30:47.820Z,6.93
2022-10-31T04:33:14.939Z,8.93
2022-10-31T04:35:43.600Z,6.97
2022-10-31T04:38:10.991Z,7.53
2022-10-31T04:40:39.355Z,7.22
2022-10-31T04:43:35.477Z,7.55
2022-10-31T04:46:02.578Z,6.32
2022-10-31T04:48:29.862Z,7.90
2022-10-31T04:51:01.927Z,5.60
2022-10-31T04:53:29.074Z,8.57
2022-10-31T04:56:14.302Z,7.65
2022-10-31T04:58:44.743Z,5.53
2022-10-31T05:01:12.717Z,5.63
2022-10-31T05:03:40.689Z,10.20
2022-10-31T05:06:08.584Z,10.55
2022-10-31T05:08:36.588Z,10.57
2022-10-31T05:11:06.343Z,11.23
2022-10-31T05:13:34.110Z,11.07
2022-10-31T05:16:00.934Z,8.05
2022-10-31T05:22:01.176Z,6.25
2022-10-31T05:24:32.599Z,7.50
2022-10-31T05:26:59.582Z,10.10
2022-10-31T05:29:26.325Z,7.85
2022-10-31T05:31:53.171Z,9.43
2022-10-31T05:34:49.209Z,9.90
2022-10-31T05:37:33.567Z,7.07
2022-10-31T05:40:05.399Z,9.40
2022-10-31T05:42:35.584Z,8.05
2022-10-31T05:45:02.584Z,6.30
2022-10-31T05:47:57.573Z,9.20
2022-10-31T05:50:49.277Z,7.75
2022-10-31T05:53:17.125Z,6.53
2022-10-31T05:55:44.750Z,7.05
2022-10-31T05:58:17.652Z,6.28
2022-10-31T06:01:04.953Z,10.50
2022-10-31T06:03:32.363Z,9.50
2022-10-31T06:06:01.602Z,6.70
2022-10-31T06:08:36.613Z,6.43
2022-10-31T06:11:07.595Z,8.02
2022-10-31T06:14:07.261Z,8.88
2022-10-31T06:17:06.537Z,6.97
2022-10-31T06:19:53.644Z,8.38
2022-10-31T06:22:22.802Z,8.65
2022-10-31T06:24:49.634Z,8.15
2022-10-31T06:27:32.721Z,12.38
2022-10-31T06:30:07.315Z,10.55
2022-10-31T06:32:36.663Z,16.75
2022-10-31T06:35:04.890Z,13.85
2022-10-31T06:37:33.843Z,13.90
2022-10-31T06:40:09.052Z,13.13
2022-10-31T06:43:02.442Z,15.40
2022-10-31T06:45:31.598Z,17.83
2022-10-31T06:48:17.648Z,12.90
2022-10-31T06:51:03.680Z,15.80
2022-10-31T06:53:30.825Z,13.75
2022-10-31T06:55:58.446Z,13.45
2022-10-31T06:58:26.343Z,12.65
2022-10-31T07:01:00.644Z,17.10
2022-10-31T07:03:27.900Z,13.48
2022-10-31T07:05:57.217Z,11.88
2022-10-31T07:08:27.420Z,9.65
2022-10-31T07:10:57.163Z,9.32
2022-10-31T07:13:26.729Z,8.88
2022-10-31T07:16:08.859Z,12.10
2022-10-31T07:18:37.085Z,10.70
2022-10-31T07:21:06.653Z,7.50
2022-10-31T07:23:37.374Z,9.13
2022-10-31T07:26:31.671Z,9.18
2022-10-31T07:29:01.040Z,17.50
2022-10-31T07:31:32.022Z,14.18
2022-10-31T07:34:04.835Z,12.80
2022-10-31T07:37:00.807Z,12.20
2022-10-31T07:39:31.343Z,16.38
2022-10-31T07:42:02.312Z,12.13
2022-10-31T07:44:33.108Z,11.55
2022-10-31T07:47:18.810Z,12.60
2022-10-31T07:50:04.293Z,12.65
2022-10-31T07:53:11.758Z,9.60
2022-10-31T07:55:49.117Z,14.48
2022-10-31T07:58:17.890Z,10.57
2022-10-31T08:00:47.584Z,11.00
2022-10-31T08:03:20.501Z,11.30
2022-10-31T08:06:16.332Z,15.60
2022-10-31T08:08:52.226Z,9.38
2022-10-31T08:11:19.745Z,12.77
2022-10-31T08:13:48.070Z,10.18
2022-10-31T08:16:15.688Z,20.90
2022-10-31T08:18:51.582Z,16.58
2022-10-31T08:21:19.676Z,14.13
2022-10-31T08:23:47.375Z,13.38
2022-10-31T08:26:15.390Z,19.02
2022-10-31T08:28:47.695Z,16.42
2022-10-31T08:31:14.979Z,13.38
2022-10-31T08:33:42.063Z,15.32
2022-10-31T08:36:28.533Z,17.23
2022-10-31T08:39:15.905Z,11.93
2022-10-31T08:41:42.963Z,14.63
2022-10-31T08:44:12.972Z,17.23
2022-10-31T08:46:40.581Z,14.68
2022-10-31T08:49:07.571Z,17.42
2022-10-31T08:51:34.632Z,17.15
2022-10-31T08:54:01.631Z,17.42
2022-10-31T08:56:55.537Z,23.92
2022-10-31T08:59:33.738Z,17.10
2022-10-31T09:02:20.892Z,19.10
2022-10-31T09:04:49.948Z,18.23
2022-10-31T09:07:21.446Z,25.45
2022-10-31T09:10:01.748Z,14.88
2022-10-31T09:12:32.938Z,14.45
2022-10-31T09:15:14.161Z,16.17
2022-10-31T09:17:50.268Z,12.75
2022-10-31T09:20:39.369Z,16.02
2022-10-31T09:23:18.620Z,13.43
2022-10-31T09:25:50.472Z,11.45
2022-10-31T09:28:36.583Z,12.52
2022-10-31T09:31:12.888Z,14.65
2022-10-31T09:33:54.288Z,12.02
2022-10-31T09:36:45.345Z,13.55
2022-10-31T09:39:24.452Z,22.20
2022-10-31T09:42:25.022Z,20.85
2022-10-31T09:45:16.500Z,25.73
2022-10-31T09:47:59.358Z,16.48
2022-10-31T09:50:42.398Z,25.25
2022-10-31T09:53:44.746Z,18.77
2022-10-31T09:56:19.539Z,14.05
2022-10-31T09:58:49.824Z,13.25
2022-10-31T10:01:55.715Z,11.20
2022-10-31T10:04:34.632Z,12.52
2022-10-31T10:07:48.068Z,13.82
2022-10-31T10:10:51.229Z,16.65
2022-10-31T10:13:53.598Z,14.18
2022-10-31T10:16:34.600Z,8.50
2022-10-31T10:19:29.728Z,10.40
2022-10-31T10:22:32.767Z,9.32
2022-10-31T10:25:24.448Z,9.73
2022-10-31T10:28:05.097Z,14.35
2022-10-31T10:30:40.004Z,10.80
2022-10-31T10:33:20.280Z,11.00
2022-10-31T10:35:49.256Z,7.55
2022-10-31T10:38:31.367Z,8.77
2022-10-31T10:41:01.775Z,11.93
2022-10-31T10:43:35.981Z,7.75
2022-10-31T10:46:30.924Z,9.98
2022-10-31T10:49:03.521Z,8.05
2022-10-31T10:54:44.280Z,6.97
2022-10-31T10:57:28.017Z,7.93
2022-10-31T10:59:54.904Z,10.10
2022-10-31T11:02:25.521Z,6.82
2022-10-31T11:07:21.066Z,7.97
2022-10-31T11:09:48.337Z,8.82
2022-10-31T11:12:21.220Z,7.20
2022-10-31T11:14:52.384Z,8.60
2022-10-31T11:17:32.250Z,8.05
2022-10-31T11:20:17.895Z,8.43
2022-10-31T11:22:48.228Z,9.15
2022-10-31T11:25:21.139Z,9.80
2022-10-31T11:27:48.667Z,7.95
2022-10-31T11:30:15.760Z,10.35
2022-10-31T11:32:50.691Z,8.02
2022-10-31T11:35:19.700Z,8.68
2022-10-31T11:37:48.749Z,7.47
2022-10-31T11:40:17.998Z,7.97
2022-10-31T11:42:46.208Z,7.13
2022-10-31T11:45:27.911Z,11.57
2022-10-31T11:47:59.894Z,6.03
2022-10-31T11:50:40.471Z,8.85
2022-10-31T11:53:20.938Z,6.07
2022-10-31T11:56:06.209Z,6.68
2022-10-31T11:58:33.744Z,6.82
2022-10-31T12:01:00.595Z,8.38
2022-10-31T12:03:42.417Z,9.88
2022-10-31T12:06:20.013Z,6.57
2022-10-31T12:08:47.793Z,7.68
2022-10-31T12:11:40.159Z,11.52
2022-10-31T12:14:33.160Z,7.18
2022-10-31T12:17:27.206Z,6.68
2022-10-31T12:20:21.663Z,8.68
2022-10-31T12:23:07.662Z,13.25
2022-10-31T12:25:58.878Z,9.10
2022-10-31T12:29:01.237Z,8.88
2022-10-31T12:31:44.816Z,8.55
2022-10-31T12:34:33.766Z,7.28
2022-10-31T12:37:15.078Z,6.90
2022-10-31T12:39:47.997Z,7.18
2022-10-31T12:42:44.321Z,8.25
2022-10-31T12:45:56.033Z,6.80
2022-10-31T12:48:42.144Z,10.43
2022-10-31T12:51:21.092Z,6.85
2022-10-31T12:54:19.476Z,5.47
2022-10-31T12:57:03.740Z,5.68
2022-10-31T12:59:45.883Z,7.57
2022-10-31T13:02:31.203Z,8.27
2022-10-31T13:05:30.320Z,7.57
2022-10-31T13:08:20.333Z,8.25
2022-10-31T13:11:15.851Z,7.80
2022-10-31T13:18:58.603Z,5.00
2022-10-31T13:21:35.425Z,8.45
2022-10-31T13:24:09.619Z,8.38
2022-10-31T13:26:48.302Z,9.40
2022-10-31T13:29:33.144Z,6.05
2022-10-31T13:32:05.293Z,6.57
2022-10-31T13:34:40.719Z,9.25
2022-10-31T13:37:32.230Z,9.35
2022-10-31T13:40:16.466Z,8.75
2022-10-31T13:42:49.508Z,8.20
2022-10-31T13:45:22.527Z,8.02
2022-10-31T13:48:19.246Z,7.00
2022-10-31T13:51:03.107Z,10.32
2022-10-31T13:53:56.437Z,10.48
2022-10-31T13:56:27.324Z,10.90
2022-10-31T13:59:02.853Z,11.77
2022-10-31T14:01:31.298Z,12.48
2022-10-31T14:04:14.831Z,10.02
2022-10-31T14:06:48.779Z,9.85
2022-10-31T14:09:40.692Z,9.35
2022-10-31T14:12:29.614Z,8.95
2022-10-31T14:15:20.069Z,8.90
2022-10-31T14:17:53.827Z,7.15
2022-10-31T14:20:32.621Z,8.93
2022-10-31T14:25:31.365Z,6.03
2022-10-31T14:28:00.129Z,8.63
2022-10-31T14:30:29.783Z,6.50
2022-10-31T14:33:03.264Z,6.13
2022-10-31T14:36:14.814Z,5.57
2022-10-31T14:39:03.481Z,6.90
2022-10-31T14:42:07.483Z,7.40
2022-10-31T14:44:53.969Z,9.75
2022-10-31T14:47:36.074Z,5.88
2022-10-31T14:50:34.883Z,4.40
2022-10-31T14:53:16.763Z,4.40
2022-10-31T14:55:53.813Z,9.07
2022-10-31T14:58:24.945Z,5.00
2022-10-31T15:00:57.202Z,5.95
2022-10-31T15:03:26.976Z,5.63
2022-10-31T15:06:00.818Z,6.55
2022-10-31T15:08:32.387Z,7.35
2022-10-31T15:10:59.269Z,5.97
2022-10-31T15:13:26.211Z,6.00
2022-10-31T15:16:02.592Z,5.13
2022-10-31T15:18:30.822Z,6.32
2022-10-31T15:20:58.051Z,4.50
2022-10-31T15:23:30.723Z,7.45
2022-10-31T15:26:06.620Z,5.57
2022-10-31T15:28:33.695Z,6.03
2022-10-31T15:31:03.327Z,6.72
2022-10-31T15:33:38.302Z,7.47
2022-10-31T15:36:06.584Z,7.53
2022-10-31T15:38:34.060Z,9.65
2022-10-31T15:41:20.872Z,10.65
2022-10-31T15:43:49.085Z,11.93
2022-10-31T15:46:16.052Z,9.85
2022-10-31T15:48:47.894Z,9.25
2022-10-31T15:51:14.927Z,16.90
2022-10-31T15:53:50.894Z,16.05
2022-10-31T15:56:24.347Z,14.48
2022-10-31T15:58:58.814Z,8.18
2022-10-31T16:01:27.676Z,14.13
2022-10-31T16:04:23.671Z,13.55
2022-10-31T16:07:02.784Z,16.30
2022-10-31T16:09:30.366Z,14.07
2022-10-31T16:11:59.592Z,15.98
2022-10-31T16:14:29.562Z,14.00
2022-10-31T16:16:59.315Z,17.58
2022-10-31T16:19:34.171Z,11.57
2022-10-31T16:22:14.787Z,21.55
2022-10-31T16:24:59.024Z,15.98
2022-10-31T16:27:30.043Z,17.77
2022-10-31T16:30:02.457Z,9.75
2022-10-31T16:32:31.470Z,12.38
2022-10-31T16:35:02.685Z,10.02
2022-10-31T16:37:29.721Z,10.00
2022-10-31T16:39:56.685Z,12.25
2022-10-31T16:42:23.982Z,14.55
2022-10-31T16:44:51.095Z,15.38
2022-10-31T16:47:21.164Z,9.90
2022-10-31T16:49:50.933Z,13.57
2022-10-31T16:52:18.629Z,7.35
2022-10-31T16:54:45.592Z,14.02
2022-10-31T16:57:27.966Z,12.07
2022-10-31T16:59:55.321Z,9.95
2022-10-31T17:02:22.771Z,17.25
2022-10-31T17:04:54.009Z,9.43
2022-10-31T17:07:23.745Z,16.77
2022-10-31T17:09:50.555Z,10.98
2022-10-31T17:12:22.573Z,9.80
2022-10-31T17:14:52.087Z,13.75
2022-10-31T17:17:19.314Z,13.15
2022-10-31T17:19:49.235Z,11.95
2022-10-31T17:22:16.205Z,9.43
2022-10-31T17:24:43.290Z,15.15
2022-10-31T17:27:10.639Z,13.68
2022-10-31T17:29:37.644Z,12.23
2022-10-31T17:32:04.745Z,11.13
2022-10-31T17:34:31.747Z,10.23
2022-10-31T17:36:59.010Z,15.32
2022-10-31T17:39:26.261Z,12.73
2022-10-31T17:41:53.130Z,12.75
2022-10-31T17:44:20.570Z,9.50
2022-10-31T17:46:47.510Z,10.45
2022-10-31T17:49:17.817Z,8.70
2022-10-31T17:51:46.241Z,13.10
2022-10-31T17:54:13.240Z,10.57
2022-10-31T17:56:40.399Z,12.10
2022-10-31T17:59:07.352Z,9.38
2022-10-31T18:01:34.468Z,9.52
2022-10-31T18:04:01.439Z,11.02
2022-10-31T18:06:28.373Z,11.55
2022-10-31T18:08:58.003Z,19.63
2022-10-31T18:11:25.026Z,17.63
2022-10-31T18:13:58.707Z,17.88
2022-10-31T18:16:27.145Z,15.43
2022-10-31T18:18:59.726Z,21.92
2022-10-31T18:21:27.091Z,20.90
2022-10-31T18:23:58.774Z,16.42
2022-10-31T18:26:29.490Z,14.70
2022-10-31T18:28:58.830Z,11.18
2022-10-31T18:31:25.891Z,10.70
2022-10-31T18:33:55.202Z,9.00
2022-10-31T18:36:22.703Z,9.32
2022-10-31T18:38:50.041Z,10.80
2022-10-31T18:41:17.264Z,7.60
2022-10-31T18:43:47.427Z,9.75
2022-10-31T18:46:16.479Z,11.13
2022-10-31T18:48:44.836Z,9.75
2022-10-31T18:51:16.299Z,8.65
2022-10-31T18:53:43.546Z,7.78
2022-10-31T18:56:13.198Z,9.00
2022-10-31T18:58:40.179Z,9.45
2022-10-31T19:01:08.733Z,6.90
2022-10-31T19:03:36.005Z,8.40
2022-10-31T19:06:03.296Z,8.65
2022-10-31T19:08:33.501Z,10.07
2022-10-31T19:11:08.848Z,8.98
2022-10-31T19:13:36.483Z,9.45
2022-10-31T19:16:15.529Z,13.32
2022-10-31T19:18:43.913Z,12.88
2022-10-31T19:21:16.375Z,16.67
2022-10-31T19:23:44.701Z,11.07
2022-10-31T19:26:12.031Z,11.55
2022-10-31T19:28:40.479Z,9.50
2022-10-31T19:31:09.517Z,12.00
2022-10-31T19:33:38.048Z,12.05
2022-10-31T19:36:10.751Z,15.52
2022-10-31T19:38:40.065Z,16.05
2022-10-31T19:41:09.745Z,15.80
2022-10-31T19:43:37.260Z,12.82
2022-10-31T19:46:05.387Z,12.32
2022-10-31T19:48:35.518Z,10.00
2022-10-31T19:51:08.086Z,12.75
2022-10-31T19:53:35.293Z,11.25
2022-10-31T19:56:02.206Z,17.48
2022-10-31T19:58:29.825Z,12.05
2022-10-31T20:00:56.862Z,13.18
2022-10-31T20:03:24.411Z,9.90
2022-10-31T20:05:51.647Z,13.57
2022-10-31T20:08:20.905Z,9.60
2022-10-31T20:10:59.760Z,13.85
2022-10-31T20:13:29.601Z,10.93
2022-10-31T20:16:02.620Z,11.77
2022-10-31T20:18:30.251Z,10.98
2022-10-31T20:21:16.358Z,12.68
2022-10-31T20:23:43.803Z,10.48
2022-10-31T20:26:13.311Z,11.82
2022-10-31T20:28:43.201Z,13.13
2022-10-31T20:31:13.158Z,15.77
2022-10-31T20:33:40.571Z,14.18
2022-10-31T20:36:08.774Z,12.15
2022-10-31T20:38:39.385Z,10.27
2022-10-31T20:41:08.729Z,11.88
2022-10-31T20:43:36.253Z,13.50
2022-10-31T20:46:06.062Z,12.60
2022-10-31T20:48:33.761Z,12.80
2022-10-31T20:51:04.714Z,10.98
2022-10-31T20:53:32.671Z,16.23
2022-10-31T20:56:14.809Z,12.20
2022-10-31T20:58:43.185Z,15.75
2022-10-31T21:01:19.330Z,11.10
2022-10-31T21:03:47.364Z,10.73
2022-10-31T21:06:15.507Z,11.13
2022-10-31T21:08:42.980Z,8.05
2022-10-31T21:11:12.541Z,11.93
2022-10-31T21:13:41.409Z,10.32
2022-10-31T21:16:10.772Z,9.82
2022-10-31T21:18:41.418Z,8.85
2022-10-31T21:21:10.237Z,10.30
2022-10-31T21:23:37.470Z,12.85
2022-10-31T21:26:17.018Z,9.88
2022-10-31T21:28:44.095Z,9.02
2022-10-31T21:31:14.299Z,9.13
2022-10-31T21:33:42.411Z,10.75
2022-10-31T21:36:10.837Z,10.50
2022-10-31T21:38:37.974Z,10.70
2022-10-31T21:41:15.983Z,11.13
2022-10-31T21:43:44.518Z,9.85
2022-10-31T21:46:18.555Z,9.05
2022-10-31T21:48:46.739Z,7.45
2022-10-31T21:51:21.024Z,10.40
2022-10-31T21:54:06.916Z,7.82
2022-10-31T21:56:34.447Z,10.77
2022-10-31T21:59:01.461Z,11.07
2022-10-31T22:01:30.143Z,9.25
2022-10-31T22:03:58.176Z,9.40
2022-10-31T22:06:30.704Z,10.15
2022-10-31T22:09:03.569Z,7.20
2022-10-31T22:11:30.752Z,9.98
2022-10-31T22:14:00.136Z,13.63
2022-10-31T22:16:29.353Z,10.43
2022-10-31T22:18:58.822Z,7.10
2022-10-31T22:21:27.876Z,8.90
2022-10-31T22:23:57.945Z,8.18
2022-10-31T22:26:28.460Z,8.43
2022-10-31T22:28:58.176Z,8.63
2022-10-31T22:31:26.452Z,8.45
2022-10-31T22:33:54.197Z,9.48
2022-10-31T22:36:23.877Z,8.85
2022-10-31T22:38:51.602Z,7.50
2022-10-31T22:41:20.905Z,9.57
2022-10-31T22:43:48.725Z,10.10
2022-10-31T22:46:18.617Z,8.60
2022-10-31T22:48:48.326Z,9.77
2022-10-31T22:51:25.443Z,7.85
2022-10-31T22:53:53.354Z,6.80
2022-10-31T22:56:22.308Z,7.57
2022-10-31T22:58:49.963Z,5.20
2022-10-31T23:01:21.437Z,5.30
2022-10-31T23:03:48.933Z,7.45
2022-10-31T23:06:21.075Z,4.55
2022-10-31T23:08:48.928Z,5.70
2022-10-31T23:11:15.722Z,4.95
2022-10-31T23:14:01.556Z,5.13
2022-10-31T23:16:30.735Z,4.32
2022-10-31T23:18:57.935Z,4.72
2022-10-31T23:21:54.741Z,6.07
2022-10-31T23:24:26.521Z,6.15
2022-10-31T23:27:11.425Z,6.70
2022-10-31T23:29:49.623Z,5.80
2022-10-31T23:32:18.683Z,9.18
2022-10-31T23:34:46.700Z,8.18
2022-10-31T23:37:14.985Z,5.00
2022-10-31T23:39:41.841Z,9.32
2022-10-31T23:42:09.735Z,6.05
2022-10-31T23:44:36.664Z,8.45
2022-10-31T23:47:04.119Z,9.13
2022-10-31T23:49:31.228Z,7.20
2022-10-31T23:51:58.405Z,7.75
2022-10-31T23:54:26.892Z,6.32
2022-10-31T23:56:54.059Z,4.57
2022-10-31T23:59:23.146Z,7.05
